Huvudsida
METAR-TAF:

METAR-TAF

Flygplatser :

Banja Lukas internationella flygplats

Banja Luka, Bosnien och Hercegovina

latitud: 44-47N, longitud: 017-13E, höjd: 156 m

Aktuellt väderrapport

Denna rapport gjordes för 17 minuter sedan, klockan 19:30 UTC
Vind 3 kt från syd/sydost, varierande mellan ost och syd
Temperatur 1°C
Fuktighet 80%
Tryck 1021 hPa
Sikt 10 km eller mer
Inga moln under 1 500 m eller inga cumulonimbus

METAR: LQBK 281930Z 15003KT 090V180 CAVOK 01/M02 Q1021 NOSIG

Tid: 20:47 (19:47 UTC)

Väderprognos

Denna rapport gjordes för 2 timmar och 47 minuter sedan, klockan 17:00 UTC
Prognos gäller från 28 kl. 18 UTC till 29 kl. 18 UTC
Vind 10 kt från nord
Sikt 10 km eller mer
Inga moln under 1 500 m eller inga cumulonimbus
Blir
från 28 kl. 21 UTC till 28 kl. 23 UTC
Vind 5 kt från syd
Blir
från 29 kl. 11 UTC till 29 kl. 13 UTC
Vind 10 kt från väst/sydväst

TAF: LQBK 281700Z 2818/2918 36010KT CAVOK TX15/2914Z TNM02/2905Z BECMG 2821/2823 18005KT BECMG 2911/2913 24010KT

Aktuella väderrapporter och prognoser från 4000 flygplatser (METAR- och TAF-rapporter).

De tillgängliga stationerna syns som gula och röda prickar på kartan.

För musen över prickarna för att se namnen på stationerna.

Klicka sedan för att få väderrapporter och prognoser.

För att ändra kartan: Klicka på de gröna knapparna med ett svart kors på för att zooma in; den gröna knappen med ett streck på för att zooma ut; eller på de gröna pilarna för angränsande kartor.


METAR-TAF: